Time;durP1;ratioP1;P1;durP2;ratioP2;P2;SDS_P1;SDS_P2;PMS_P1;PMS_P2;Temp;Humidity;BMP_temperature;BMP_pressure;BME280_temperature;BME280_humidity;BME280_pressure;Samples;Min_cycle;Max_cycle;Signal;HPM_P1;HPM_P2
2021/12/11 00:00:05;;;;;;;6.93;1.40;;;;;;;17.67;61.64;96725.50;3117830;28;20081;-48
2021/12/11 00:01:52;;;;;;;5.00;1.45;;;;;;;17.65;62.13;96723.06;3123693;28;20303;-46
2021/12/11 00:03:26;;;;;;;8.00;1.70;;;;;;;17.63;62.14;96719.84;3126845;28;20144;-47
2021/12/11 00:05:00;;;;;;;3.22;1.60;;;;;;;17.60;62.12;96722.97;3119170;28;20085;-50
2021/12/11 00:06:36;;;;;;;3.20;1.67;;;;;;;17.59;62.33;96726.72;3115288;28;20068;-50
2021/12/11 00:08:10;;;;;;;4.28;1.80;;;;;;;17.57;62.23;96719.97;3127134;28;20779;-49
2021/12/11 00:09:47;;;;;;;6.72;2.83;;;;;;;17.54;62.74;96731.19;3123133;28;20064;-45
2021/12/11 00:11:22;;;;;;;7.78;1.70;;;;;;;17.54;62.65;96739.22;3125967;28;20049;-47
2021/12/11 00:12:59;;;;;;;4.15;1.58;;;;;;;17.50;62.54;96738.91;3125440;28;20114;-44
2021/12/11 00:14:34;;;;;;;9.93;1.20;;;;;;;17.47;62.60;96736.72;3123272;28;20132;-46
2021/12/11 00:16:07;;;;;;;5.18;2.13;;;;;;;17.45;62.66;96741.50;3124738;28;20148;-46
2021/12/11 00:17:39;;;;;;;17.23;2.17;;;;;;;17.45;62.60;96748.72;3125414;28;20123;-45
2021/12/11 00:19:15;;;;;;;7.40;1.85;;;;;;;17.42;62.69;96750.81;3126388;28;20141;-45
2021/12/11 00:20:53;;;;;;;5.63;2.15;;;;;;;17.40;62.67;96738.72;3125589;28;20052;-48
2021/12/11 00:22:29;;;;;;;2.75;1.30;;;;;;;17.39;62.74;96723.72;3123593;28;20045;-48
2021/12/11 00:24:07;;;;;;;3.60;1.60;;;;;;;17.36;62.71;96742.94;3127134;28;20052;-48
2021/12/11 00:25:42;;;;;;;3.67;1.17;;;;;;;17.34;62.83;96748.53;3125118;28;20095;-50
2021/12/11 00:27:20;;;;;;;4.13;1.48;;;;;;;17.32;62.87;96744.47;3127615;28;20132;-48
2021/12/11 00:28:54;;;;;;;5.07;1.60;;;;;;;17.31;62.82;96737.50;3127361;28;20537;-46
2021/12/11 00:30:27;;;;;;;5.38;2.17;;;;;;;17.27;62.92;96734.47;3125330;28;20131;-47
2021/12/11 00:32:04;;;;;;;4.75;1.48;;;;;;;17.26;62.95;96735.53;3125427;28;20041;-46
2021/12/11 00:33:34;;;;;;;2.95;1.98;;;;;;;17.24;63.01;96739.50;3124507;28;20083;-46
2021/12/11 00:35:09;;;;;;;5.73;1.97;;;;;;;17.23;63.09;96753.97;3127045;28;20045;-46
2021/12/11 00:36:49;;;;;;;1.10;0.95;;;;;;;17.19;62.95;96749.09;3126439;28;21360;-45
2021/12/11 00:38:25;;;;;;;2.63;1.40;;;;;;;17.17;63.31;96745.81;3127683;28;20087;-45
2021/12/11 00:40:01;;;;;;;2.92;1.08;;;;;;;17.15;63.37;96750.59;3124943;28;20752;-50
2021/12/11 00:41:33;;;;;;;2.55;1.13;;;;;;;17.13;63.24;96755.41;3124524;28;20227;-48
2021/12/11 00:43:08;;;;;;;6.40;1.48;;;;;;;17.12;63.23;96744.91;3115571;28;20530;-47
2021/12/11 00:44:44;;;;;;;2.45;1.25;;;;;;;17.11;63.21;96752.16;3116986;28;20146;-47
2021/12/11 00:46:22;;;;;;;3.33;1.73;;;;;;;17.08;63.34;96755.31;3114836;28;20144;-46
2021/12/11 00:47:58;;;;;;;3.30;1.20;;;;;;;17.06;63.30;96762.75;3112011;28;20079;-47
2021/12/11 00:49:30;;;;;;;4.10;1.85;;;;;;;17.03;63.34;96763.25;3113635;28;20048;-47
2021/12/11 00:51:05;;;;;;;2.95;1.10;;;;;;;17.02;63.40;96772.34;3114391;28;20065;-48
2021/12/11 00:52:42;;;;;;;2.53;1.27;;;;;;;17.01;63.38;96780.59;3124130;28;20049;-47
2021/12/11 00:54:14;;;;;;;2.92;1.10;;;;;;;16.98;63.50;96782.69;3126567;28;20090;-47
2021/12/11 00:55:51;;;;;;;2.58;1.42;;;;;;;16.96;63.40;96783.97;3123402;28;20060;-46
2021/12/11 00:57:23;;;;;;;3.08;1.20;;;;;;;16.94;63.50;96786.91;3125863;28;20049;-47
2021/12/11 00:58:59;;;;;;;2.55;1.50;;;;;;;16.94;63.54;96799.50;3126089;28;20049;-46
2021/12/11 01:00:36;;;;;;;2.92;2.15;;;;;;;16.91;63.62;96795.41;3123547;28;20083;-47
2021/12/11 01:02:09;;;;;;;4.13;1.13;;;;;;;16.89;63.67;96802.06;3125104;28;20044;-49
2021/12/11 01:03:46;;;;;;;3.13;1.15;;;;;;;16.87;63.70;96796.13;3125202;28;20082;-48
2021/12/11 01:05:18;;;;;;;4.20;1.30;;;;;;;16.86;63.69;96786.47;3122360;28;20044;-47
2021/12/11 01:06:52;;;;;;;;;;;;;;;16.83;63.68;96790.44;3126880;28;20068;-45
2021/12/11 01:08:28;;;;;;;4.32;1.45;;;;;;;16.80;63.73;96782.03;3125371;28;19921;-48
2021/12/11 01:10:05;;;;;;;2.42;0.90;;;;;;;16.79;63.73;96793.81;3125966;28;20044;-46
2021/12/11 01:11:40;;;;;;;1.65;1.13;;;;;;;16.77;63.72;96786.03;3125773;28;20049;-47
2021/12/11 01:13:17;;;;;;;2.95;0.85;;;;;;;16.75;63.73;96801.47;3125463;28;20722;-45
2021/12/11 01:14:54;;;;;;;4.70;1.85;;;;;;;16.74;63.75;96789.97;3123527;28;20072;-47
2021/12/11 01:16:27;;;;;;;5.45;1.17;;;;;;;16.71;63.80;96794.94;3125276;28;20103;-49
2021/12/11 01:18:21;;;;;;;4.40;1.70;;;;;;;16.69;63.83;96800.56;3125908;28;20110;-48
2021/12/11 01:20:00;;;;;;;1.88;1.10;;;;;;;16.67;63.88;96786.59;3124333;28;20075;-46
2021/12/11 01:21:44;;;;;;;3.17;1.50;;;;;;;16.67;63.86;96788.47;3125341;28;20047;-47
2021/12/11 01:23:33;;;;;;;2.45;1.00;;;;;;;16.64;63.97;96787.06;3125318;28;20244;-45
2021/12/11 01:25:10;;;;;;;2.08;1.08;;;;;;;16.63;64.06;96789.97;3126135;28;20083;-47
2021/12/11 01:26:50;;;;;;;3.60;1.80;;;;;;;16.62;64.04;96789.16;3124624;28;22855;-47
2021/12/11 01:28:22;;;;;;;1.40;1.20;;;;;;;16.60;64.16;96785.88;3123410;28;20059;-48
2021/12/11 01:29:57;;;;;;;2.60;1.00;;;;;;;16.59;64.09;96803.00;3124617;28;20061;-45
2021/12/11 01:31:30;;;;;;;4.13;1.38;;;;;;;16.58;64.24;96790.69;3123932;28;20761;-49
2021/12/11 01:33:05;;;;;;;2.58;1.35;;;;;;;16.57;64.18;96798.94;3126012;28;20045;-44
2021/12/11 01:34:37;;;;;;;4.85;1.55;;;;;;;16.54;64.23;96806.38;3125717;28;20041;-47
2021/12/11 01:36:09;;;;;;;4.18;1.30;;;;;;;16.53;64.26;96811.97;3126905;28;20057;-48
2021/12/11 01:37:41;;;;;;;3.00;1.45;;;;;;;16.52;64.22;96810.38;3124259;28;20048;-47
2021/12/11 01:39:18;;;;;;;2.35;1.40;;;;;;;16.50;64.38;96812.47;3127333;28;20099;-46
2021/12/11 01:40:58;;;;;;;2.75;1.20;;;;;;;16.49;64.40;96805.47;3113504;28;20056;-46
2021/12/11 01:42:33;;;;;;;2.88;0.90;;;;;;;16.46;64.42;96798.72;3114109;28;20054;-45
2021/12/11 01:44:09;;;;;;;2.15;1.08;;;;;;;16.46;64.43;96811.28;3123022;28;20045;-46
2021/12/11 01:45:45;;;;;;;2.30;1.75;;;;;;;16.44;64.44;96811.53;3122709;28;20157;-47
2021/12/11 01:47:22;;;;;;;5.43;1.50;;;;;;;16.41;64.61;96805.81;3123542;28;20103;-47
2021/12/11 01:48:58;;;;;;;1.88;0.90;;;;;;;16.40;64.55;96815.69;3123065;28;20045;-50
2021/12/11 01:50:35;;;;;;;1.95;1.13;;;;;;;16.40;64.60;96812.22;3123309;28;20041;-48
2021/12/11 01:52:11;;;;;;;3.33;2.20;;;;;;;16.37;64.66;96815.38;3123476;28;20051;-46
2021/12/11 01:53:46;;;;;;;1.10;0.73;;;;;;;16.36;64.73;96806.53;3124451;28;20114;-49
2021/12/11 01:55:24;;;;;;;3.17;1.30;;;;;;;16.35;64.61;96814.78;3123524;28;20123;-45
2021/12/11 01:57:11;;;;;;;1.40;0.77;;;;;;;16.34;64.69;96823.84;3124293;28;20065;-49
2021/12/11 01:58:46;;;;;;;3.03;0.95;;;;;;;16.31;64.62;96825.94;3122488;28;20109;-45
2021/12/11 02:00:21;;;;;;;2.25;1.35;;;;;;;16.31;64.87;96827.81;3122816;28;20143;-48
2021/12/11 02:02:01;;;;;;;0.88;0.88;;;;;;;16.28;64.91;96829.09;3125404;28;20050;-47
2021/12/11 02:03:35;;;;;;;3.67;1.10;;;;;;;16.27;64.87;96835.50;3124271;28;20090;-45
2021/12/11 02:05:13;;;;;;;4.57;1.10;;;;;;;16.25;64.99;96826.88;3124662;28;20111;-47
2021/12/11 02:06:48;;;;;;;2.33;1.00;;;;;;;16.25;64.79;96839.44;3124543;28;20080;-45
2021/12/11 02:08:30;;;;;;;2.97;1.05;;;;;;;16.22;64.88;96822.00;3125102;28;20102;-48
2021/12/11 02:10:02;;;;;;;2.63;1.52;;;;;;;16.21;64.89;96839.06;3123552;28;20052;-45
2021/12/11 02:11:33;;;;;;;3.03;1.00;;;;;;;16.20;64.90;96844.66;3123778;28;20613;-45
2021/12/11 02:13:08;;;;;;;1.90;1.15;;;;;;;16.19;65.00;96833.16;3125938;28;20061;-44
2021/12/11 02:14:44;;;;;;;1.35;0.80;;;;;;;16.17;64.98;96832.56;3124374;28;20134;-48
2021/12/11 02:16:20;;;;;;;2.63;1.27;;;;;;;16.17;64.84;96840.59;3121669;28;20048;-45
2021/12/11 02:17:56;;;;;;;2.15;0.80;;;;;;;16.15;64.97;96840.00;3125142;28;20051;-45
2021/12/11 02:19:37;;;;;;;4.47;1.92;;;;;;;16.13;64.86;96834.09;3124517;28;20667;-45
2021/12/11 02:21:13;;;;;;;2.47;0.90;;;;;;;16.09;65.06;96839.06;3125268;28;20052;-46
2021/12/11 02:22:49;;;;;;;1.30;0.88;;;;;;;16.08;64.82;96845.47;3124468;28;20052;-46
2021/12/11 02:24:23;;;;;;;2.83;0.90;;;;;;;16.07;64.88;96840.34;3124863;28;20051;-46
2021/12/11 02:26:01;;;;;;;1.75;1.13;;;;;;;16.06;64.93;96852.09;3123872;28;20048;-48
2021/12/11 02:27:36;;;;;;;2.13;1.25;;;;;;;16.05;64.90;96850.47;3124379;28;20164;-49
2021/12/11 02:29:11;;;;;;;1.98;1.13;;;;;;;16.04;64.88;96832.78;3124964;28;20766;-47
2021/12/11 02:30:48;;;;;;;1.60;1.17;;;;;;;16.03;65.01;96831.97;3124174;28;20053;-48
2021/12/11 02:32:29;;;;;;;3.40;1.30;;;;;;;16.05;65.03;96837.91;3125004;28;20079;-45
2021/12/11 02:34:08;;;;;;;0.82;0.70;;;;;;;16.07;65.05;96841.19;3123375;28;20053;-46
2021/12/11 02:35:45;;;;;;;1.92;1.10;;;;;;;16.07;65.08;96826.97;3124265;28;20053;-47
2021/12/11 02:37:22;;;;;;;1.83;0.95;;;;;;;16.08;64.98;96842.00;3125455;28;20053;-46
2021/12/11 02:39:06;;;;;;;2.90;0.93;;;;;;;16.07;64.91;96833.16;3125738;28;20524;-46
2021/12/11 02:40:42;;;;;;;2.28;1.33;;;;;;;16.11;65.06;96852.22;3121079;28;20045;-46
2021/12/11 02:42:19;;;;;;;3.45;1.25;;;;;;;16.10;64.94;96855.94;3125547;28;20132;-47
2021/12/11 02:43:56;;;;;;;4.53;1.83;;;;;;;16.09;64.85;96854.31;3125392;28;20110;-45
2021/12/11 02:45:32;;;;;;;4.57;1.05;;;;;;;16.10;64.83;96858.59;3123979;28;20072;-45
2021/12/11 02:47:10;;;;;;;1.55;0.88;;;;;;;16.10;64.80;96877.31;3125214;28;20117;-46
2021/12/11 02:48:46;;;;;;;1.60;1.42;;;;;;;16.10;64.98;96863.94;3123730;28;20135;-47
2021/12/11 02:50:22;;;;;;;2.05;0.75;;;;;;;16.11;64.92;96867.47;3123220;28;20048;-46
2021/12/11 02:51:58;;;;;;;1.95;0.90;;;;;;;16.09;64.88;96871.16;3125627;28;20048;-45
2021/12/11 02:53:34;;;;;;;2.00;1.23;;;;;;;16.10;64.96;96877.31;3125793;28;20706;-47
2021/12/11 02:55:12;;;;;;;1.33;1.02;;;;;;;16.09;64.83;96860.47;3123757;28;20146;-48
2021/12/11 02:56:47;;;;;;;1.60;0.80;;;;;;;16.09;64.95;96865.81;3124793;28;20136;-48
2021/12/11 02:58:22;;;;;;;1.88;1.23;;;;;;;16.09;64.94;96878.38;3121598;28;20136;-48
2021/12/11 02:59:54;;;;;;;1.15;0.80;;;;;;;16.08;65.04;96877.56;3124802;28;20072;-48
2021/12/11 03:01:30;;;;;;;1.77;0.73;;;;;;;16.07;64.96;96883.97;3121343;28;20649;-45
2021/12/11 03:03:06;;;;;;;2.70;1.52;;;;;;;16.07;65.09;96888.47;3123815;28;20049;-47
2021/12/11 03:04:45;;;;;;;1.73;1.20;;;;;;;16.07;65.07;96885.81;3123194;28;20063;-45
2021/12/11 03:06:20;;;;;;;1.20;0.80;;;;;;;16.06;65.13;96892.22;3121390;28;20049;-45
2021/12/11 03:07:54;;;;;;;1.05;0.70;;;;;;;16.04;65.12;96900.44;3125503;28;20049;-46
2021/12/11 03:09:29;;;;;;;4.47;1.50;;;;;;;16.04;65.16;96896.97;3127302;28;20056;-48
2021/12/11 03:11:08;;;;;;;1.60;0.52;;;;;;;16.04;65.19;96913.00;3128337;28;20063;-44
2021/12/11 03:12:44;;;;;;;2.55;1.27;;;;;;;16.03;65.07;96906.84;3118704;28;20651;-47
2021/12/11 03:14:19;;;;;;;0.90;0.70;;;;;;;16.02;65.30;96910.56;3126304;28;20049;-45
2021/12/11 03:15:52;;;;;;;2.30;1.50;;;;;;;16.02;65.31;96917.78;3127402;28;20049;-46
2021/12/11 03:17:27;;;;;;;1.83;1.08;;;;;;;16.02;65.43;96923.13;3127437;28;20128;-45
2021/12/11 03:19:00;;;;;;;3.47;0.70;;;;;;;16.01;65.54;96921.50;3128346;28;20152;-45
2021/12/11 03:20:33;;;;;;;1.33;0.68;;;;;;;15.98;65.53;96925.44;3125296;28;20033;-46
2021/12/11 03:22:09;;;;;;;1.05;0.68;;;;;;;15.98;65.64;96932.66;3127886;28;20057;-44
2021/12/11 03:23:41;;;;;;;2.10;0.90;;;;;;;15.96;65.63;96937.41;3127746;28;20568;-46
2021/12/11 03:25:16;;;;;;;6.85;1.38;;;;;;;15.95;65.58;96938.44;3127240;28;20064;-44
2021/12/11 03:26:52;;;;;;;3.20;0.80;;;;;;;15.95;65.63;96939.25;3127407;28;20044;-46
2021/12/11 03:28:25;;;;;;;1.50;1.10;;;;;;;15.95;65.54;96954.50;3125038;28;20129;-46
2021/12/11 03:29:56;;;;;;;1.92;0.82;;;;;;;15.95;65.61;96959.84;3128325;28;20053;-45
2021/12/11 03:31:28;;;;;;;1.27;0.70;;;;;;;15.93;65.63;96962.72;3127446;28;20138;-46
2021/12/11 03:33:02;;;;;;;1.38;0.60;;;;;;;15.92;65.52;96974.47;3128153;28;20045;-46
2021/12/11 03:34:34;;;;;;;1.90;1.08;;;;;;;15.91;65.64;96974.69;3126581;28;20139;-45
2021/12/11 03:36:08;;;;;;;1.88;0.82;;;;;;;15.90;65.53;96981.91;3127308;28;20120;-48
2021/12/11 03:37:40;;;;;;;1.08;0.68;;;;;;;15.88;65.69;96978.66;3127272;28;20144;-47
2021/12/11 03:39:16;;;;;;;2.63;0.90;;;;;;;15.87;65.53;96985.03;3127867;28;20113;-50
2021/12/11 03:40:48;;;;;;;1.23;0.68;;;;;;;15.85;65.74;96982.59;3123985;28;20158;-45
2021/12/11 03:42:25;;;;;;;3.67;0.63;;;;;;;15.86;65.53;96988.75;3117217;28;20049;-45
2021/12/11 03:43:57;;;;;;;2.17;1.20;;;;;;;15.84;65.68;96993.50;3130109;28;20110;-43
2021/12/11 03:45:32;;;;;;;1.33;0.90;;;;;;;15.83;65.65;96992.69;3124654;28;20037;-44
2021/12/11 03:47:08;;;;;;;2.05;0.77;;;;;;;15.83;65.46;96994.56;3128486;28;20597;-46
2021/12/11 03:48:44;;;;;;;2.85;1.00;;;;;;;15.80;65.58;97000.34;3128846;28;20071;-44
2021/12/11 03:50:18;;;;;;;4.15;0.77;;;;;;;15.80;65.72;97001.16;3127093;28;20476;-43
2021/12/11 03:51:52;;;;;;;1.73;0.75;;;;;;;15.79;65.71;97004.88;3128384;28;20045;-43
2021/12/11 03:53:25;;;;;;;0.80;0.73;;;;;;;15.78;65.55;96997.91;3128825;28;20072;-45
2021/12/11 03:54:57;;;;;;;1.20;0.60;;;;;;;15.76;65.59;97010.66;3128437;28;20781;-45
2021/12/11 03:56:29;;;;;;;1.52;0.80;;;;;;;15.75;65.63;97017.06;3128574;28;20060;-44
2021/12/11 03:58:03;;;;;;;2.13;1.45;;;;;;;15.76;65.48;97015.19;3125576;28;20144;-43
2021/12/11 03:59:35;;;;;;;1.92;0.80;;;;;;;15.74;65.79;97018.09;3128967;28;20056;-44
2021/12/11 04:01:12;;;;;;;1.83;0.80;;;;;;;15.73;65.61;97016.47;3128770;28;20562;-43
2021/12/11 04:02:45;;;;;;;1.27;0.90;;;;;;;15.71;65.68;97023.91;3129155;28;20044;-42
2021/12/11 04:04:21;;;;;;;3.33;0.93;;;;;;;15.71;65.59;97029.25;3127552;28;20093;-42
2021/12/11 04:05:54;;;;;;;1.15;0.80;;;;;;;15.71;65.61;97020.41;3125753;28;20052;-46
2021/12/11 04:07:32;;;;;;;3.00;0.82;;;;;;;15.70;65.75;97018.78;3126121;28;20136;-45
2021/12/11 04:09:10;;;;;;;0.60;0.40;;;;;;;15.68;66.02;97018.97;3128487;28;20143;-46
2021/12/11 04:10:42;;;;;;;2.53;0.90;;;;;;;15.67;65.93;97022.69;3126012;28;20057;-41
2021/12/11 04:12:15;;;;;;;1.25;0.70;;;;;;;15.66;65.94;97031.75;3125324;28;20391;-43
2021/12/11 04:13:51;;;;;;;0.90;0.60;;;;;;;15.65;65.81;97038.09;3126693;28;20106;-44
2021/12/11 04:15:23;;;;;;;1.25;1.15;;;;;;;15.65;65.96;97030.09;3123772;28;20075;-43
2021/12/11 04:16:55;;;;;;;0.85;0.60;;;;;;;15.63;66.05;97040.22;3128612;28;20128;-44
2021/12/11 04:18:27;;;;;;;1.35;1.25;;;;;;;15.62;66.12;97043.91;3124689;28;20048;-44
2021/12/11 04:20:03;;;;;;;2.58;0.90;;;;;;;15.61;66.12;97043.09;3126217;28;20143;-44
2021/12/11 04:21:35;;;;;;;1.30;0.70;;;;;;;15.60;66.06;97040.63;3126969;28;20084;-44
2021/12/11 04:23:11;;;;;;;1.42;0.68;;;;;;;15.59;66.02;97047.03;3129193;28;20049;-46
2021/12/11 04:24:46;;;;;;;0.85;0.63;;;;;;;15.58;65.97;97045.41;3125345;28;20124;-43
2021/12/11 04:26:18;;;;;;;1.98;0.88;;;;;;;15.57;65.99;97039.25;3128019;28;20045;-42
2021/12/11 04:27:52;;;;;;;0.55;0.55;;;;;;;15.56;66.10;97040.25;3126420;28;20053;-44
2021/12/11 04:29:26;;;;;;;1.17;0.60;;;;;;;15.54;66.00;97037.00;3127761;28;20124;-41
2021/12/11 04:31:05;;;;;;;1.08;0.80;;;;;;;15.53;66.12;97031.88;3126532;28;20049;-43
2021/12/11 04:32:38;;;;;;;1.83;0.95;;;;;;;15.52;65.96;97038.28;3126818;28;20068;-44
2021/12/11 04:34:13;;;;;;;0.93;0.60;;;;;;;15.52;66.25;97036.41;3126707;28;20045;-44
2021/12/11 04:35:45;;;;;;;2.03;0.95;;;;;;;15.52;65.97;97038.28;3124833;28;20102;-43
2021/12/11 04:37:22;;;;;;;0.82;0.50;;;;;;;15.51;66.04;97039.31;3125822;28;20122;-43
2021/12/11 04:38:55;;;;;;;0.93;0.73;;;;;;;15.53;65.95;97043.38;3127815;28;20465;-42
2021/12/11 04:40:34;;;;;;;1.55;0.85;;;;;;;15.55;65.89;97048.53;3127146;28;20759;-43
2021/12/11 04:42:17;;;;;;;1.10;0.70;;;;;;;15.56;65.96;97056.28;3127941;28;20052;-42
2021/12/11 04:43:51;;;;;;;0.80;0.50;;;;;;;15.58;65.92;97058.75;3122382;28;20072;-44
2021/12/11 04:45:31;;;;;;;2.25;0.77;;;;;;;15.58;65.80;97059.56;3110567;28;20049;-45
2021/12/11 04:47:07;;;;;;;1.98;0.70;;;;;;;15.58;65.81;97066.78;3113384;28;20049;-44
2021/12/11 04:48:43;;;;;;;0.88;0.65;;;;;;;15.58;65.72;97066.78;3114097;28;20062;-44
2021/12/11 04:50:25;;;;;;;0.82;0.52;;;;;;;15.57;65.66;97073.16;3113174;28;20042;-44
2021/12/11 04:52:04;;;;;;;0.93;0.80;;;;;;;15.59;65.77;97076.41;3119249;28;21385;-45
2021/12/11 04:53:49;;;;;;;1.48;0.52;;;;;;;15.60;65.91;97078.03;3123381;28;22369;-43
2021/12/11 04:55:35;;;;;;;1.63;0.70;;;;;;;15.59;66.03;97079.09;3112356;28;20052;-45
2021/12/11 04:57:37;;;;;;;1.17;0.77;;;;;;;15.59;66.05;97089.78;3115560;28;20721;-44
2021/12/11 04:59:24;;;;;;;1.05;0.80;;;;;;;15.59;65.98;97095.13;3113392;28;20045;-44
2021/12/11 05:01:11;;;;;;;1.27;0.47;;;;;;;15.59;66.14;97090.59;3118091;28;20116;-44
2021/12/11 05:03:23;;;;;;;0.63;0.43;;;;;;;15.58;66.11;97082.81;3124989;28;20072;-46
2021/12/11 05:05:05;;;;;;;1.45;0.70;;;;;;;15.57;65.90;97084.69;3123328;28;20052;-45
2021/12/11 05:06:48;;;;;;;1.85;1.00;;;;;;;15.59;65.99;97095.13;3123878;28;20145;-44
2021/12/11 05:08:59;;;;;;;1.27;0.35;;;;;;;15.61;66.19;97098.41;3124844;28;20075;-43
2021/12/11 05:10:38;;;;;;;1.52;0.47;;;;;;;15.65;66.32;97110.28;3124377;28;20055;-44
2021/12/11 05:12:20;;;;;;;1.75;0.80;;;;;;;15.70;66.18;97107.78;3126749;28;20045;-45
2021/12/11 05:13:52;;;;;;;0.60;0.60;;;;;;;15.78;66.00;97114.69;3126019;28;20079;-52
2021/12/11 05:15:25;;;;;;;;;;;;;;;15.85;65.88;97116.28;3125059;28;20049;-49
2021/12/11 05:16:58;;;;;;;0.52;0.52;;;;;;;15.94;65.86;97127.47;3128666;28;19978;-46
2021/12/11 05:18:33;;;;;;;1.80;0.85;;;;;;;16.00;65.82;97115.88;3124291;28;20052;-45
2021/12/11 05:20:07;;;;;;;1.92;1.00;;;;;;;16.06;65.49;97127.56;3126227;28;20163;-47
2021/12/11 05:21:39;;;;;;;0.73;0.73;;;;;;;16.12;65.50;97121.31;3123223;28;20088;-44
2021/12/11 05:23:12;;;;;;;1.33;0.60;;;;;;;16.20;65.47;97121.00;3122495;28;20048;-46
2021/12/11 05:24:49;;;;;;;1.02;0.82;;;;;;;16.27;65.31;97127.09;3122561;28;20808;-45
2021/12/11 05:26:22;;;;;;;1.00;0.85;;;;;;;16.34;65.42;97131.53;3124251;28;20091;-47
2021/12/11 05:27:55;;;;;;;2.15;0.70;;;;;;;16.40;65.08;97131.44;3124327;28;20585;-46
2021/12/11 05:29:27;;;;;;;1.15;0.60;;;;;;;16.47;65.12;97131.38;3123934;28;20164;-43
2021/12/11 05:31:04;;;;;;;1.10;0.60;;;;;;;16.53;64.94;97130.47;3123327;28;20127;-46
2021/12/11 05:32:38;;;;;;;1.67;0.80;;;;;;;16.61;64.90;97132.81;3122505;28;20153;-43
2021/12/11 05:34:09;;;;;;;1.95;0.63;;;;;;;16.66;64.79;97132.13;3125403;28;20052;-44
2021/12/11 05:35:42;;;;;;;1.42;0.65;;;;;;;16.70;64.73;97131.44;3124267;28;20041;-42
2021/12/11 05:37:14;;;;;;;1.02;0.65;;;;;;;16.74;64.56;97129.97;3126200;28;20076;-45
2021/12/11 05:38:49;;;;;;;1.20;0.50;;;;;;;16.79;64.52;97137.34;3125662;28;20061;-42
2021/12/11 05:40:23;;;;;;;2.50;0.77;;;;;;;16.84;64.38;97139.34;3123603;28;20045;-47
2021/12/11 05:41:55;;;;;;;2.03;0.68;;;;;;;16.86;64.52;97139.94;3125823;28;20056;-44
2021/12/11 05:43:31;;;;;;;1.00;0.65;;;;;;;16.90;64.31;97141.09;3123471;28;20132;-45
2021/12/11 05:45:05;;;;;;;1.00;0.40;;;;;;;16.91;64.26;97142.72;3125082;28;20045;-44
2021/12/11 05:46:36;;;;;;;0.70;0.68;;;;;;;16.93;64.39;97149.47;3124652;28;20049;-46
2021/12/11 05:48:11;;;;;;;1.27;0.50;;;;;;;16.97;64.30;97152.53;3125634;28;20060;-45
2021/12/11 05:49:44;;;;;;;0.43;0.38;;;;;;;16.98;64.37;97149.63;3123102;28;20132;-46
2021/12/11 05:51:20;;;;;;;0.43;0.28;;;;;;;17.01;64.29;97151.03;3125758;28;20052;-47
2021/12/11 05:52:52;;;;;;;0.80;0.60;;;;;;;17.04;64.27;97155.91;3124256;28;20041;-44
2021/12/11 05:54:26;;;;;;;0.60;0.43;;;;;;;17.05;64.40;97148.69;3124013;28;20817;-46
2021/12/11 05:55:59;;;;;;;1.00;0.45;;;;;;;17.06;64.43;97159.19;3125116;28;20077;-49
2021/12/11 05:57:31;;;;;;;0.35;0.32;;;;;;;17.08;64.38;97150.94;3124371;28;20469;-44
2021/12/11 05:59:04;;;;;;;0.80;0.50;;;;;;;17.08;64.41;97151.75;3124560;28;20094;-44
2021/12/11 06:00:39;;;;;;;0.88;0.60;;;;;;;17.09;64.75;97145.34;3113581;28;20052;-44
2021/12/11 06:02:15;;;;;;;0.55;0.50;;;;;;;17.11;64.44;97147.78;3115559;28;20064;-45
2021/12/11 06:03:49;;;;;;;1.42;0.65;;;;;;;17.11;64.22;97140.56;3113665;28;20684;-47
2021/12/11 06:05:21;;;;;;;1.58;0.47;;;;;;;17.13;64.18;97143.84;3112227;28;20152;-47
2021/12/11 06:06:54;;;;;;;0.65;0.55;;;;;;;17.16;64.00;97148.75;3111161;28;20419;-46
2021/12/11 06:08:26;;;;;;;2.00;0.30;;;;;;;17.18;63.96;97151.97;3112773;28;20136;-48
2021/12/11 06:10:02;;;;;;;0.43;0.30;;;;;;;17.20;63.95;97157.13;3118629;28;20677;-47
2021/12/11 06:11:34;;;;;;;1.17;0.63;;;;;;;17.24;64.07;97149.44;3125839;28;20103;-47
2021/12/11 06:13:05;;;;;;;0.47;0.47;;;;;;;17.25;63.82;97156.44;3126367;28;20045;-46
2021/12/11 06:14:38;;;;;;;0.50;0.50;;;;;;;17.29;63.78;97157.59;3122846;28;20053;-47
2021/12/11 06:16:11;;;;;;;0.63;0.50;;;;;;;17.30;63.67;97151.19;3124480;28;20067;-48
2021/12/11 06:17:46;;;;;;;0.77;0.47;;;;;;;17.33;63.73;97158.78;3124972;28;20045;-49
2021/12/11 06:19:21;;;;;;;1.05;0.35;;;;;;;17.37;63.55;97170.66;3122807;28;20059;-48
2021/12/11 06:20:54;;;;;;;0.40;0.40;;;;;;;17.40;63.65;97164.84;3124811;28;20071;-45
2021/12/11 06:22:29;;;;;;;1.60;0.77;;;;;;;17.41;63.40;97169.13;3123203;28;20147;-46
2021/12/11 06:24:01;;;;;;;0.47;0.45;;;;;;;17.42;63.46;97174.28;3113762;28;20049;-46
2021/12/11 06:25:34;;;;;;;0.68;0.60;;;;;;;17.44;63.37;97174.06;3111767;28;20057;-48
2021/12/11 06:27:07;;;;;;;0.45;0.38;;;;;;;17.46;63.38;97190.72;3111642;28;20575;-48
2021/12/11 06:28:39;;;;;;;0.88;0.40;;;;;;;17.47;63.21;97187.00;3111393;28;20080;-48
2021/12/11 06:30:12;;;;;;;0.80;0.50;;;;;;;17.48;63.38;97198.53;3113579;28;20103;-47
2021/12/11 06:31:44;;;;;;;0.63;0.35;;;;;;;17.51;63.23;97206.94;3125273;28;20167;-46
2021/12/11 06:33:16;;;;;;;0.40;0.40;;;;;;;17.50;63.15;97202.63;3125595;28;20080;-50
2021/12/11 06:34:50;;;;;;;3.03;0.85;;;;;;;17.52;63.25;97215.78;3123277;28;20057;-48
2021/12/11 06:36:24;;;;;;;0.65;0.60;;;;;;;17.51;63.13;97209.59;3123830;28;20148;-46
2021/12/11 06:37:56;;;;;;;1.17;0.50;;;;;;;17.52;63.28;97213.91;3125219;28;20057;-46
2021/12/11 06:39:28;;;;;;;1.67;0.63;;;;;;;17.52;63.07;97227.31;3123429;28;20048;-48
2021/12/11 06:41:00;;;;;;;0.90;0.50;;;;;;;17.53;62.79;97230.84;3125737;28;20624;-47
2021/12/11 06:42:32;;;;;;;1.35;0.45;;;;;;;17.54;63.02;97230.59;3124098;28;20068;-46
2021/12/11 06:44:04;;;;;;;0.25;0.25;;;;;;;17.54;62.92;97233.25;3124389;28;20081;-46
2021/12/11 06:45:37;;;;;;;0.47;0.35;;;;;;;17.56;62.90;97244.59;3123355;28;20131;-49
2021/12/11 06:47:10;;;;;;;0.20;0.20;;;;;;;17.58;62.91;97249.72;3126121;28;20081;-48
2021/12/11 06:48:42;;;;;;;0.32;0.32;;;;;;;17.59;62.91;97244.13;3124695;28;20061;-47
2021/12/11 06:50:18;;;;;;;0.68;0.40;;;;;;;17.61;63.05;97258.13;3124842;28;21122;-46
2021/12/11 06:51:50;;;;;;;0.45;0.40;;;;;;;17.62;62.76;97254.38;3124332;28;20053;-48
2021/12/11 06:53:27;;;;;;;0.55;0.55;;;;;;;17.64;62.80;97252.28;3125036;28;20053;-49
2021/12/11 06:54:59;;;;;;;0.32;0.28;;;;;;;17.64;62.86;97260.34;3123478;28;20692;-48
2021/12/11 06:56:31;;;;;;;0.50;0.43;;;;;;;17.67;62.87;97252.88;3125067;28;20049;-46
2021/12/11 06:58:04;;;;;;;0.63;0.30;;;;;;;17.69;62.75;97266.84;3125537;28;20518;-44
2021/12/11 06:59:36;;;;;;;0.73;0.40;;;;;;;17.70;62.58;97271.19;3123172;28;20670;-47
2021/12/11 07:01:10;;;;;;;1.10;0.60;;;;;;;17.71;62.68;97273.63;3124793;28;21057;-47
2021/12/11 07:02:42;;;;;;;0.73;0.40;;;;;;;17.74;62.91;97272.34;3125189;28;20087;-45
2021/12/11 07:04:14;;;;;;;2.35;0.47;;;;;;;17.76;62.95;97273.75;3125775;28;20049;-45
2021/12/11 07:05:47;;;;;;;0.98;0.60;;;;;;;17.78;62.92;97284.28;3124117;28;20048;-46
2021/12/11 07:07:23;;;;;;;0.90;0.50;;;;;;;17.80;62.76;97298.28;3123096;28;20083;-48
2021/12/11 07:08:54;;;;;;;0.85;0.50;;;;;;;17.82;62.78;97291.63;3125282;28;20140;-45
2021/12/11 07:10:26;;;;;;;1.48;0.50;;;;;;;17.83;62.72;97295.97;3124788;28;20152;-44
2021/12/11 07:11:59;;;;;;;;;;;;;;;17.86;62.66;97308.09;3126191;28;20072;-46
2021/12/11 07:13:31;;;;;;;2.10;0.50;;;;;;;17.89;62.87;97309.50;3126019;28;20402;-46
2021/12/11 07:15:05;;;;;;;0.40;0.25;;;;;;;17.90;62.67;97314.63;3123369;28;20148;-48
2021/12/11 07:16:37;;;;;;;0.60;0.30;;;;;;;17.91;62.63;97321.63;3122791;28;20124;-47
2021/12/11 07:18:10;;;;;;;0.52;0.50;;;;;;;17.93;62.48;97324.88;3125411;28;20049;-45
2021/12/11 07:19:42;;;;;;;0.60;0.30;;;;;;;17.94;62.47;97315.81;3120821;28;20049;-46
2021/12/11 07:21:15;;;;;;;0.75;0.55;;;;;;;17.97;62.67;97326.06;3112719;28;20054;-47
2021/12/11 07:22:47;;;;;;;0.55;0.52;;;;;;;17.99;62.45;97323.16;3111850;28;20099;-47
2021/12/11 07:24:21;;;;;;;0.40;0.30;;;;;;;18.01;62.58;97327.25;3110835;28;20601;-45
2021/12/11 07:25:57;;;;;;;0.32;0.32;;;;;;;18.03;62.43;97335.88;3112697;28;20411;-48
2021/12/11 07:27:29;;;;;;;0.30;0.30;;;;;;;18.02;62.41;97331.53;3113091;28;20068;-44
2021/12/11 07:29:05;;;;;;;1.45;0.70;;;;;;;18.04;62.30;97342.88;3126344;28;20582;-49